createdAt,value
2018-10-01T00:00:59.277Z,7.30
2018-10-01T00:03:28.474Z,7.30
2018-10-01T00:05:57.009Z,7.30
2018-10-01T00:08:25.533Z,7.30
2018-10-01T00:10:54.098Z,7.40
2018-10-01T00:13:22.624Z,7.30
2018-10-01T00:15:51.172Z,7.30
2018-10-01T00:18:19.844Z,7.40
2018-10-01T00:20:53.580Z,7.40
2018-10-01T00:23:22.464Z,7.50
2018-10-01T00:25:51.005Z,7.40
2018-10-01T00:28:19.517Z,7.40
2018-10-01T00:30:48.080Z,7.50
2018-10-01T00:33:16.589Z,7.50
2018-10-01T00:35:45.188Z,7.50
2018-10-01T00:38:13.812Z,7.50
2018-10-01T00:40:42.364Z,7.50
2018-10-01T00:43:10.974Z,7.50
2018-10-01T00:45:39.590Z,7.50
2018-10-01T00:48:08.101Z,7.50
2018-10-01T00:50:36.620Z,7.50
2018-10-01T00:53:05.167Z,7.50
2018-10-01T00:55:33.727Z,7.50
2018-10-01T00:58:02.245Z,7.60
2018-10-01T01:00:31.179Z,7.60
2018-10-01T01:02:59.706Z,7.60
2018-10-01T01:05:28.428Z,7.60
2018-10-01T01:07:57.406Z,7.60
2018-10-01T01:10:25.970Z,7.60
2018-10-01T01:12:54.477Z,7.60
2018-10-01T01:15:23.035Z,7.60
2018-10-01T01:17:51.597Z,7.60
2018-10-01T01:20:20.140Z,7.70
2018-10-01T01:22:48.983Z,7.70
2018-10-01T01:25:17.505Z,7.60
2018-10-01T01:27:46.068Z,7.60
2018-10-01T01:30:15.202Z,7.60
2018-10-01T01:32:43.744Z,7.60
2018-10-01T01:35:12.352Z,7.50
2018-10-01T01:37:41.179Z,7.50
2018-10-01T01:40:09.872Z,7.50
2018-10-01T01:42:38.392Z,7.60
2018-10-01T01:45:07.388Z,7.60
2018-10-01T01:47:35.973Z,7.60
2018-10-01T01:50:04.540Z,7.60
2018-10-01T01:52:33.590Z,7.50
2018-10-01T01:55:02.129Z,7.50
2018-10-01T01:57:30.653Z,7.60
2018-10-01T01:59:59.194Z,7.60
2018-10-01T02:02:27.699Z,7.60
2018-10-01T02:04:56.213Z,7.60
2018-10-01T02:07:24.770Z,7.50
2018-10-01T02:09:53.324Z,7.50
2018-10-01T02:12:21.824Z,7.50
2018-10-01T02:14:50.543Z,7.50
2018-10-01T02:17:19.091Z,7.50
2018-10-01T02:19:47.615Z,7.40
2018-10-01T02:22:16.555Z,7.50
2018-10-01T02:24:45.072Z,7.50
2018-10-01T02:27:13.640Z,7.50
2018-10-01T02:29:42.527Z,7.50
2018-10-01T02:32:11.044Z,7.40
2018-10-01T02:34:39.589Z,7.40
2018-10-01T02:37:08.300Z,7.40
2018-10-01T02:39:36.820Z,7.40
2018-10-01T02:42:05.356Z,7.40
2018-10-01T02:44:34.317Z,7.50
2018-10-01T02:47:02.885Z,7.50
2018-10-01T02:49:31.416Z,7.40
2018-10-01T02:52:05.539Z,7.40
2018-10-01T02:54:34.149Z,7.40
2018-10-01T02:57:02.981Z,7.40
2018-10-01T02:59:31.924Z,7.40
2018-10-01T03:02:00.432Z,7.40
2018-10-01T03:04:29.144Z,7.50
2018-10-01T03:06:58.154Z,7.50
2018-10-01T03:09:26.678Z,7.40
2018-10-01T03:11:55.238Z,7.40
2018-10-01T03:14:24.149Z,7.30
2018-10-01T03:16:52.685Z,7.30
2018-10-01T03:19:21.383Z,7.20
2018-10-01T03:21:49.928Z,7.20
2018-10-01T03:24:18.473Z,7.10
2018-10-01T03:26:46.989Z,7.20
2018-10-01T03:29:15.944Z,7.20
2018-10-01T03:31:44.443Z,7.20
2018-10-01T03:34:12.940Z,7.10
2018-10-01T03:36:41.514Z,7.10
2018-10-01T03:39:10.433Z,7.10
2018-10-01T03:41:39.500Z,7.00
2018-10-01T03:44:08.269Z,7.00
2018-10-01T03:46:36.831Z,7.00
2018-10-01T03:49:05.361Z,6.90
2018-10-01T03:51:33.920Z,7.00
2018-10-01T03:54:02.444Z,7.00
2018-10-01T03:56:30.977Z,7.00
2018-10-01T03:58:59.546Z,7.00
2018-10-01T04:01:28.118Z,7.00
2018-10-01T04:03:56.715Z,7.00
2018-10-01T04:06:25.216Z,7.00
2018-10-01T04:08:53.823Z,7.00
2018-10-01T04:11:22.305Z,7.00
2018-10-01T04:13:51.300Z,7.00
2018-10-01T04:16:19.817Z,7.00
2018-10-01T04:18:48.316Z,7.10
2018-10-01T04:21:16.991Z,7.10
2018-10-01T04:23:45.492Z,7.20
2018-10-01T04:26:14.124Z,7.20
2018-10-01T04:28:42.673Z,7.20
2018-10-01T04:31:11.192Z,7.30
2018-10-01T04:33:39.738Z,7.30
2018-10-01T04:36:08.320Z,7.40
2018-10-01T04:38:36.970Z,7.40
2018-10-01T04:41:05.579Z,7.50
2018-10-01T04:43:34.132Z,7.60
2018-10-01T04:46:02.876Z,7.60
2018-10-01T04:48:31.468Z,7.70
2018-10-01T04:51:00.076Z,7.70
2018-10-01T04:53:28.588Z,7.80
2018-10-01T04:55:57.102Z,7.80
2018-10-01T04:58:25.863Z,7.90
2018-10-01T05:00:54.343Z,7.90
2018-10-01T05:03:22.904Z,8.00
2018-10-01T05:05:51.412Z,8.00
2018-10-01T05:08:20.050Z,8.00
2018-10-01T05:10:48.612Z,8.10
2018-10-01T05:13:17.466Z,8.10
2018-10-01T05:15:46.064Z,8.20
2018-10-01T05:18:14.711Z,8.20
2018-10-01T05:20:43.287Z,8.30
2018-10-01T05:23:11.807Z,8.30
2018-10-01T05:25:40.319Z,8.30
2018-10-01T05:28:09.046Z,8.30
2018-10-01T05:30:37.589Z,8.40
2018-10-01T05:33:06.234Z,8.40
2018-10-01T05:35:35.069Z,8.40
2018-10-01T05:38:03.601Z,8.50
2018-10-01T05:40:32.174Z,8.50
2018-10-01T05:43:01.066Z,8.50
2018-10-01T05:45:29.691Z,8.60
2018-10-01T05:47:58.329Z,8.60
2018-10-01T05:50:26.833Z,8.60
2018-10-01T05:52:55.427Z,8.60
2018-10-01T05:55:23.952Z,8.70
2018-10-01T05:57:52.781Z,8.70
2018-10-01T06:00:21.337Z,8.80
2018-10-01T06:02:49.845Z,8.80
2018-10-01T06:05:18.804Z,8.90
2018-10-01T06:07:47.317Z,8.90
2018-10-01T06:10:15.954Z,8.90
2018-10-01T06:12:44.947Z,8.90
2018-10-01T06:15:13.479Z,8.90
2018-10-01T06:17:42.212Z,9.00
2018-10-01T06:20:11.248Z,9.00
2018-10-01T06:22:39.814Z,9.10
2018-10-01T06:25:08.356Z,9.20
2018-10-01T06:27:36.936Z,9.20
2018-10-01T06:30:05.620Z,9.30
2018-10-01T06:32:34.126Z,9.40
2018-10-01T06:35:02.760Z,9.40
2018-10-01T06:37:31.370Z,9.50
2018-10-01T06:40:00.369Z,9.50
2018-10-01T06:42:28.944Z,9.50
2018-10-01T06:44:57.467Z,9.50
2018-10-01T06:47:25.982Z,9.50
2018-10-01T06:49:54.480Z,9.50
2018-10-01T06:52:22.988Z,9.50
2018-10-01T06:54:51.648Z,9.50
2018-10-01T06:57:20.703Z,9.50
2018-10-01T06:59:49.264Z,9.50
2018-10-01T07:02:17.937Z,9.50
2018-10-01T07:04:46.711Z,9.50
2018-10-01T07:07:15.263Z,9.50
2018-10-01T07:09:43.765Z,9.50
2018-10-01T07:12:12.710Z,9.50
2018-10-01T07:14:41.238Z,9.60
2018-10-01T07:17:09.885Z,9.60
2018-10-01T07:19:38.700Z,9.60
2018-10-01T07:22:07.229Z,9.60
2018-10-01T07:24:35.904Z,9.70
2018-10-01T07:27:04.927Z,9.80
2018-10-01T07:29:33.472Z,9.80
2018-10-01T07:32:02.081Z,9.90
2018-10-01T07:34:30.901Z,9.90
2018-10-01T07:36:59.428Z,9.90
2018-10-01T07:39:27.929Z,9.90
2018-10-01T07:41:56.880Z,10.00
2018-10-01T07:44:25.437Z,10.00
2018-10-01T07:46:54.153Z,10.10
2018-10-01T07:49:23.084Z,10.10
2018-10-01T07:51:51.581Z,10.20
2018-10-01T07:54:20.063Z,10.10
2018-10-01T07:56:49.125Z,10.10
2018-10-01T07:59:17.613Z,10.10
2018-10-01T08:01:46.114Z,10.10
2018-10-01T08:04:14.872Z,10.10
2018-10-01T08:06:43.375Z,10.20
2018-10-01T08:09:12.807Z,10.20
2018-10-01T08:11:41.281Z,10.20
2018-10-01T08:14:09.845Z,10.30
2018-10-01T08:16:38.325Z,10.30
2018-10-01T08:19:07.276Z,10.40
2018-10-01T08:21:35.864Z,10.40
2018-10-01T08:24:04.381Z,10.40
2018-10-01T08:26:32.941Z,10.40
2018-10-01T08:29:01.508Z,10.50
2018-10-01T08:31:30.096Z,10.50
2018-10-01T08:33:59.065Z,10.40
2018-10-01T08:36:27.549Z,10.50
2018-10-01T08:38:56.071Z,10.50
2018-10-01T08:41:24.818Z,10.60
2018-10-01T08:43:53.313Z,10.70
2018-10-01T08:46:21.885Z,10.70
2018-10-01T08:48:55.664Z,10.60
2018-10-01T08:51:28.433Z,10.50
2018-10-01T08:55:02.133Z,10.60
2018-10-01T08:57:30.680Z,10.70
2018-10-01T08:59:59.169Z,10.70
2018-10-01T09:02:27.768Z,10.60
2018-10-01T09:04:56.283Z,10.60
2018-10-01T09:07:24.808Z,10.70
2018-10-01T09:09:53.716Z,10.60
2018-10-01T09:12:22.404Z,10.50
2018-10-01T09:14:50.999Z,10.60
2018-10-01T09:17:19.656Z,10.70
2018-10-01T09:19:48.204Z,10.80
2018-10-01T09:22:16.768Z,11.00
2018-10-01T09:24:45.313Z,11.00
2018-10-01T09:27:13.822Z,11.10
2018-10-01T09:29:42.348Z,11.20
2018-10-01T09:32:10.999Z,11.30
2018-10-01T09:34:39.547Z,11.20
2018-10-01T09:37:08.080Z,11.40
2018-10-01T09:39:36.629Z,11.30
2018-10-01T09:42:05.173Z,11.20
2018-10-01T09:44:33.767Z,11.20
2018-10-01T09:47:02.648Z,11.20
2018-10-01T09:49:31.164Z,11.30
2018-10-01T09:51:59.683Z,11.40
2018-10-01T09:54:28.197Z,11.50
2018-10-01T09:56:56.924Z,11.50
2018-10-01T09:59:25.485Z,11.60
2018-10-01T10:01:54.391Z,11.80
2018-10-01T10:04:23.046Z,11.80
2018-10-01T10:06:51.489Z,11.70
2018-10-01T10:09:20.300Z,11.60
2018-10-01T10:11:48.816Z,11.50
2018-10-01T10:14:17.489Z,11.30
2018-10-01T10:16:46.426Z,11.20
2018-10-01T10:19:15.118Z,11.20
2018-10-01T10:21:43.760Z,11.20
2018-10-01T10:24:12.352Z,11.20
2018-10-01T10:26:40.876Z,11.10
2018-10-01T10:29:09.404Z,10.90
2018-10-01T10:31:37.940Z,10.80
2018-10-01T10:34:06.525Z,10.70
2018-10-01T10:36:35.036Z,10.60
2018-10-01T10:39:04.584Z,10.70
2018-10-01T10:41:33.285Z,10.70
2018-10-01T10:44:01.875Z,10.80
2018-10-01T10:46:30.416Z,10.70
2018-10-01T10:48:58.928Z,10.70
2018-10-01T10:51:27.442Z,10.90
2018-10-01T10:53:55.963Z,11.10
2018-10-01T10:56:24.534Z,11.20
2018-10-01T10:58:53.064Z,11.30
2018-10-01T11:01:21.656Z,11.30
2018-10-01T11:03:50.239Z,11.30
2018-10-01T11:06:18.791Z,11.40
2018-10-01T11:08:47.316Z,11.40
2018-10-01T11:11:16.048Z,11.50
2018-10-01T11:13:44.600Z,11.60
2018-10-01T11:16:13.108Z,11.70
2018-10-01T11:18:41.817Z,11.90
2018-10-01T11:21:10.227Z,11.90
2018-10-01T11:23:39.084Z,12.10
2018-10-01T11:26:07.949Z,12.10
2018-10-01T11:28:36.500Z,12.00
2018-10-01T11:31:05.517Z,12.00
2018-10-01T11:33:34.107Z,12.00
2018-10-01T11:36:02.817Z,12.00
2018-10-01T11:38:31.749Z,12.00
2018-10-01T11:41:00.361Z,12.00
2018-10-01T11:43:28.880Z,12.00
2018-10-01T11:45:57.432Z,12.00
2018-10-01T11:48:26.022Z,12.00
2018-10-01T11:50:54.533Z,12.00
2018-10-01T11:53:23.112Z,11.90
2018-10-01T11:55:51.651Z,11.90
2018-10-01T11:58:20.173Z,11.90
2018-10-01T12:00:49.083Z,12.00
2018-10-01T12:03:17.689Z,12.00
2018-10-01T12:05:46.139Z,12.00
2018-10-01T12:08:15.078Z,12.10
2018-10-01T12:10:43.927Z,12.20
2018-10-01T12:13:12.543Z,12.30
2018-10-01T12:15:41.256Z,12.20
2018-10-01T12:18:09.611Z,12.20
2018-10-01T12:20:38.222Z,12.00
2018-10-01T12:23:07.175Z,12.10
2018-10-01T12:25:35.892Z,12.00
2018-10-01T12:28:04.521Z,12.10
2018-10-01T12:30:33.104Z,12.10
2018-10-01T12:33:01.778Z,12.10
2018-10-01T12:35:30.279Z,12.10
2018-10-01T12:37:58.844Z,12.20
2018-10-01T12:40:27.356Z,12.20
2018-10-01T12:42:55.891Z,12.10
2018-10-01T12:45:24.592Z,12.10
2018-10-01T12:47:53.104Z,12.20
2018-10-01T12:50:21.684Z,12.20
2018-10-01T12:52:50.204Z,12.20
2018-10-01T12:55:18.928Z,12.30
2018-10-01T12:57:47.570Z,12.30
2018-10-01T13:00:16.030Z,12.30
2018-10-01T13:02:44.755Z,12.30
2018-10-01T13:05:13.553Z,12.30
2018-10-01T13:07:42.152Z,12.30
2018-10-01T13:10:10.659Z,12.40
2018-10-01T13:12:39.264Z,12.40
2018-10-01T13:15:08.047Z,12.40
2018-10-01T13:17:36.705Z,12.40
2018-10-01T13:20:05.660Z,12.40
2018-10-01T13:22:34.632Z,12.40
2018-10-01T13:25:03.225Z,12.40
2018-10-01T13:27:31.753Z,12.50
2018-10-01T13:30:00.355Z,12.50
2018-10-01T13:32:28.882Z,12.40
2018-10-01T13:34:57.405Z,12.40
2018-10-01T13:37:26.409Z,12.40
2018-10-01T13:39:55.132Z,12.40
2018-10-01T13:42:23.651Z,12.40
2018-10-01T13:44:52.608Z,12.30
2018-10-01T13:47:21.159Z,12.20
2018-10-01T13:49:49.736Z,12.20
2018-10-01T13:52:18.456Z,12.20
2018-10-01T13:54:47.093Z,12.20
2018-10-01T13:57:15.984Z,12.20
2018-10-01T13:59:44.959Z,12.10
2018-10-01T14:02:13.461Z,12.10
2018-10-01T14:04:42.013Z,12.10
2018-10-01T14:07:10.830Z,12.10
2018-10-01T14:09:39.540Z,12.10
2018-10-01T14:12:08.133Z,12.10
2018-10-01T14:14:37.009Z,12.00
2018-10-01T14:17:05.611Z,12.00
2018-10-01T14:19:34.279Z,12.10
2018-10-01T14:22:02.821Z,12.10
2018-10-01T14:24:31.344Z,12.10
2018-10-01T14:26:59.903Z,12.10
2018-10-01T14:29:28.501Z,12.00
2018-10-01T14:31:57.016Z,12.00
2018-10-01T14:34:25.531Z,12.00
2018-10-01T14:36:54.341Z,11.90
2018-10-01T14:39:22.872Z,11.80
2018-10-01T14:41:51.403Z,11.70
2018-10-01T14:44:19.996Z,11.70
2018-10-01T14:46:48.509Z,11.70
2018-10-01T14:49:17.024Z,11.60
2018-10-01T14:51:45.562Z,11.60
2018-10-01T14:54:14.279Z,11.60
2018-10-01T14:56:42.677Z,11.50
2018-10-01T14:59:11.244Z,11.40
2018-10-01T15:01:39.883Z,11.50
2018-10-01T15:04:08.400Z,11.40
2018-10-01T15:06:37.656Z,11.40
2018-10-01T15:09:08.856Z,11.50
2018-10-01T15:11:37.430Z,11.50
2018-10-01T15:14:06.017Z,11.40
2018-10-01T15:16:34.858Z,11.40
2018-10-01T15:19:03.436Z,11.30
2018-10-01T15:21:32.324Z,11.20
2018-10-01T15:24:00.921Z,11.20
2018-10-01T15:26:29.408Z,11.10
2018-10-01T15:28:58.452Z,11.10
2018-10-01T15:31:27.033Z,11.10
2018-10-01T15:33:55.564Z,11.00
2018-10-01T15:36:24.105Z,11.00
2018-10-01T15:38:52.630Z,10.90
2018-10-01T15:41:21.146Z,10.90
2018-10-01T15:43:49.842Z,10.90
2018-10-01T15:46:18.545Z,10.80
2018-10-01T15:48:47.231Z,10.80
2018-10-01T15:51:15.776Z,10.80
2018-10-01T15:53:44.300Z,10.70
2018-10-01T15:56:12.852Z,10.60
2018-10-01T15:58:41.787Z,10.50
2018-10-01T16:01:10.318Z,10.40
2018-10-01T16:03:38.824Z,10.30
2018-10-01T16:06:07.809Z,10.20
2018-10-01T16:08:36.356Z,10.10
2018-10-01T16:11:05.137Z,10.10
2018-10-01T16:13:34.008Z,10.00
2018-10-01T16:16:02.867Z,9.90
2018-10-01T16:18:31.632Z,9.80
2018-10-01T16:21:00.695Z,9.70
2018-10-01T16:23:29.423Z,9.70
2018-10-01T16:25:57.987Z,9.60
2018-10-01T16:28:26.624Z,9.50
2018-10-01T16:30:55.180Z,9.40
2018-10-01T16:33:25.593Z,9.30
2018-10-01T16:35:54.136Z,9.30
2018-10-01T16:38:22.658Z,9.20
2018-10-01T16:40:51.265Z,9.20
2018-10-01T16:43:20.349Z,9.10
2018-10-01T16:45:51.096Z,9.00
2018-10-01T16:48:19.636Z,8.90
2018-10-01T16:50:48.143Z,8.90
2018-10-01T16:53:16.658Z,8.80
2018-10-01T16:55:45.628Z,8.60
2018-10-01T16:58:14.810Z,8.60
2018-10-01T17:00:43.384Z,8.60
2018-10-01T17:03:11.941Z,8.50
2018-10-01T17:05:40.788Z,8.40
2018-10-01T17:08:09.329Z,8.30
2018-10-01T17:10:37.893Z,8.20
2018-10-01T17:13:06.636Z,8.20
2018-10-01T17:15:35.171Z,8.10
2018-10-01T17:18:07.394Z,8.00
2018-10-01T17:20:35.895Z,8.00
2018-10-01T17:23:04.528Z,7.90
2018-10-01T17:25:33.127Z,7.80
2018-10-01T17:28:01.708Z,7.70
2018-10-01T17:30:30.292Z,7.60
2018-10-01T17:32:59.350Z,7.50
2018-10-01T17:35:27.908Z,7.40
2018-10-01T17:37:56.461Z,7.30
2018-10-01T17:40:25.213Z,7.20
2018-10-01T17:42:53.773Z,7.10
2018-10-01T17:45:22.296Z,7.00
2018-10-01T17:47:51.084Z,7.00
2018-10-01T17:50:19.628Z,6.80
2018-10-01T17:52:48.188Z,6.70
2018-10-01T17:55:16.972Z,6.70
2018-10-01T17:57:45.503Z,6.50
2018-10-01T18:00:14.627Z,6.50
2018-10-01T18:02:43.377Z,6.40
2018-10-01T18:05:12.156Z,6.30
2018-10-01T18:07:41.044Z,6.20
2018-10-01T18:10:09.720Z,6.20
2018-10-01T18:12:38.302Z,6.10
2018-10-01T18:15:08.160Z,6.00
2018-10-01T18:17:37.064Z,5.90
2018-10-01T18:20:05.651Z,5.80
2018-10-01T18:22:34.197Z,5.80
2018-10-01T18:25:04.501Z,5.70
2018-10-01T18:27:32.996Z,5.60
2018-10-01T18:30:01.617Z,5.60
2018-10-01T18:32:30.501Z,5.60
2018-10-01T18:34:59.007Z,5.50
2018-10-01T18:37:27.604Z,5.50
2018-10-01T18:39:56.495Z,5.40
2018-10-01T18:42:25.159Z,5.40
2018-10-01T18:44:53.597Z,5.40
2018-10-01T18:47:24.245Z,5.40
2018-10-01T18:49:52.800Z,5.30
2018-10-01T18:52:21.341Z,5.30
2018-10-01T18:54:50.135Z,5.20
2018-10-01T18:57:18.698Z,5.20
2018-10-01T18:59:48.109Z,5.10
2018-10-01T19:02:16.713Z,5.10
2018-10-01T19:04:45.223Z,5.00
2018-10-01T19:07:13.762Z,5.00
2018-10-01T19:09:45.552Z,5.00
2018-10-01T19:12:14.186Z,5.00
2018-10-01T19:14:42.668Z,5.00
2018-10-01T19:17:11.583Z,5.00
2018-10-01T19:19:40.142Z,5.00
2018-10-01T19:22:08.739Z,4.90
2018-10-01T19:24:37.477Z,4.90
2018-10-01T19:27:06.033Z,4.90
2018-10-01T19:29:34.547Z,4.90
2018-10-01T19:32:03.286Z,4.90
2018-10-01T19:34:31.816Z,5.00
2018-10-01T19:37:00.359Z,5.00
2018-10-01T19:39:29.286Z,5.00
2018-10-01T19:41:57.872Z,5.00
2018-10-01T19:44:26.445Z,5.00
2018-10-01T19:46:55.528Z,4.90
2018-10-01T19:49:24.556Z,4.90
2018-10-01T19:51:53.828Z,4.90
2018-10-01T19:54:23.137Z,4.90
2018-10-01T19:56:52.915Z,5.00
2018-10-01T19:59:21.690Z,5.10
2018-10-01T20:01:50.400Z,5.00
2018-10-01T20:04:18.976Z,5.00
2018-10-01T20:06:47.520Z,5.10
2018-10-01T20:09:16.412Z,5.10
2018-10-01T20:11:44.960Z,5.10
2018-10-01T20:14:13.520Z,5.10
2018-10-01T20:16:42.800Z,5.20
2018-10-01T20:19:11.320Z,5.20
2018-10-01T20:21:39.906Z,5.20
2018-10-01T20:24:08.524Z,5.30
2018-10-01T20:26:37.096Z,5.40
2018-10-01T20:29:06.188Z,5.40
2018-10-01T20:31:34.598Z,5.40
2018-10-01T20:34:03.158Z,5.50
2018-10-01T20:36:31.739Z,5.60
2018-10-01T20:39:00.761Z,5.70
2018-10-01T20:41:29.342Z,5.70
2018-10-01T20:43:57.909Z,5.80
2018-10-01T20:46:26.437Z,5.80
2018-10-01T20:48:54.960Z,5.80
2018-10-01T20:51:23.528Z,5.80
2018-10-01T20:53:52.104Z,5.80
2018-10-01T20:56:20.651Z,5.80
2018-10-01T20:58:49.193Z,5.90
2018-10-01T21:01:18.156Z,5.90
2018-10-01T21:03:46.709Z,5.90
2018-10-01T21:06:15.263Z,5.90
2018-10-01T21:08:44.162Z,5.90
2018-10-01T21:11:12.737Z,5.90
2018-10-01T21:13:41.308Z,6.00
2018-10-01T21:16:10.096Z,6.00
2018-10-01T21:18:38.633Z,6.00
2018-10-01T21:21:07.216Z,6.10
2018-10-01T21:23:35.947Z,6.10
2018-10-01T21:26:04.488Z,6.10
2018-10-01T21:28:33.082Z,6.10
2018-10-01T21:31:01.931Z,6.10
2018-10-01T21:33:30.493Z,6.10
2018-10-01T21:35:59.084Z,6.10
2018-10-01T21:38:27.773Z,6.10
2018-10-01T21:40:56.370Z,6.20
2018-10-01T21:43:24.895Z,6.20
2018-10-01T21:45:54.964Z,6.20
2018-10-01T21:48:23.516Z,6.20
2018-10-01T21:50:52.044Z,6.20
2018-10-01T21:53:20.974Z,6.30
2018-10-01T21:55:49.512Z,6.30
2018-10-01T21:58:18.044Z,6.30
2018-10-01T22:00:51.992Z,6.30
2018-10-01T22:03:20.539Z,6.30
2018-10-01T22:05:49.122Z,6.30
2018-10-01T22:08:18.195Z,6.40
2018-10-01T22:10:46.734Z,6.40
2018-10-01T22:13:15.286Z,6.40
2018-10-01T22:15:48.440Z,6.40
2018-10-01T22:18:20.412Z,6.40
2018-10-01T22:20:48.995Z,6.40
2018-10-01T22:23:17.551Z,6.50
2018-10-01T22:25:46.135Z,6.50
2018-10-01T22:28:14.990Z,6.60
2018-10-01T22:30:43.564Z,6.50
2018-10-01T22:33:12.318Z,6.50
2018-10-01T22:35:41.185Z,6.50
2018-10-01T22:38:09.708Z,6.50
2018-10-01T22:40:38.299Z,6.60
2018-10-01T22:43:06.984Z,6.60
2018-10-01T22:45:35.539Z,6.60
2018-10-01T22:48:04.223Z,6.60
2018-10-01T22:50:33.160Z,6.60
2018-10-01T22:53:01.724Z,6.60
2018-10-01T22:55:30.272Z,6.70
2018-10-01T22:57:58.828Z,6.70
2018-10-01T23:00:27.988Z,6.60
2018-10-01T23:02:56.549Z,6.60
2018-10-01T23:05:25.308Z,6.60
2018-10-01T23:07:54.181Z,6.60
2018-10-01T23:10:22.788Z,6.60
2018-10-01T23:12:51.296Z,6.60
2018-10-01T23:15:19.800Z,6.60
2018-10-01T23:17:48.401Z,6.60
2018-10-01T23:20:17.260Z,6.60
2018-10-01T23:22:45.800Z,6.60
2018-10-01T23:25:14.316Z,6.60
2018-10-01T23:27:43.144Z,6.60
2018-10-01T23:30:11.676Z,6.60
2018-10-01T23:32:40.414Z,6.60
2018-10-01T23:35:08.991Z,6.50
2018-10-01T23:37:37.496Z,6.50
2018-10-01T23:40:06.099Z,6.40
2018-10-01T23:42:34.943Z,6.40
2018-10-01T23:45:03.595Z,6.30
2018-10-01T23:47:32.117Z,6.20
2018-10-01T23:50:00.659Z,6.20
2018-10-01T23:52:29.175Z,6.10
2018-10-01T23:54:57.729Z,6.10
2018-10-01T23:57:26.722Z,5.90
2018-10-01T23:59:55.232Z,5.80
